Hlavní strana
METAR-TAF:

METAR-TAF

Letiště :

Alta, Norsko

zeměpisná šířka: 69-59N, zeměpisná délka: 023-22E, výška: 0 m

Aktuální stav počasí

Zpráva byla vytvořena před 14 minutami, v 15:20 UTC
Západoseverozápadní vítr 12 kt
Teplota 8°C
Vlhkost vzduchu 76%
Tlak 1001 hPa
Viditelnost 10 km a více
Skoro jasno ve výšce 1500 ft
Oblačno až skoro zataženo ve výšce 3100 ft
slabý déšť

METAR: ENAT 041520Z 30012KT 9999 -RA FEW015 BKN031 08/04 Q1001 RMK WIND 700FT 30011KT

Čas: 17:34 (15:34 UTC)

Předpověď počasí

Zpráva byla vytvořena před 14 minutami, v 15:20 UTC
Předpověď platná od 04 v 15 UTC do 04 v 16 UTC
Severozápadní vítr 15 kt
Viditelnost 10 km a více
Skoro jasno ve výšce 1000 ft
Oblačno až skoro zataženo ve výšce 2000 ft
slabý déšť
Dočasný
od 04 v 15 UTC do 04 v 16 UTC
Oblačno až skoro zataženo ve výšce 800 ft

TAF: ENAT 041520Z 0415/0416 32015KT 9999 -RA FEW010 BKN020 TEMPO 0415/0416 BKN008

Stav a předpovědi počasí z více než 4 000 letišť (zprávy METAR a TAF).

Červené a žluté tečky na mapě představují dostupné meteorologické stanice.

Když kurzor umístíte na tečku, zobrazí se název stanice.

Pak kliknutím zobrazíte stav a předpověď počasí.

Chcete-li změnit mapu, kliknutím na zelené tlačítko se znaménkem +mapu přiblížíte, kliknutím na zelené tlačítko se znaménkem – mapu oddálíte a kliknutím na zelené šipky přejdete na sousední mapy.


METAR-TAF: